createdAt,value
2017-06-09T00:00:26.170Z,1011.57
2017-06-09T00:01:36.473Z,1011.56
2017-06-09T00:02:46.770Z,1011.59
2017-06-09T00:03:57.053Z,1011.54
2017-06-09T00:05:07.356Z,1011.58
2017-06-09T00:06:17.902Z,1011.53
2017-06-09T00:07:27.883Z,1011.57
2017-06-09T00:08:38.173Z,1011.58
2017-06-09T00:09:48.139Z,1011.58
2017-06-09T00:10:58.419Z,1011.55
2017-06-09T00:12:08.947Z,1011.56
2017-06-09T00:13:19.243Z,1011.53
2017-06-09T00:14:29.522Z,1011.53
2017-06-09T00:15:39.800Z,1011.54
2017-06-09T00:16:49.468Z,1011.51
2017-06-09T00:17:59.691Z,1011.48
2017-06-09T00:19:09.661Z,1011.47
2017-06-09T00:20:19.934Z,1011.45
2017-06-09T00:21:30.218Z,1011.43
2017-06-09T00:22:40.500Z,1011.45
2017-06-09T00:23:50.720Z,1011.41
2017-06-09T00:25:00.684Z,1011.39
2017-06-09T00:26:10.659Z,1011.42
2017-06-09T00:27:20.943Z,1011.4
2017-06-09T00:28:31.223Z,1011.38
2017-06-09T00:29:41.755Z,1011.4
2017-06-09T00:30:52.044Z,1011.43
2017-06-09T00:32:02.325Z,1011.42
2017-06-09T00:33:12.607Z,1011.4
2017-06-09T00:34:22.877Z,1011.43
2017-06-09T00:35:33.417Z,1011.37
2017-06-09T00:36:43.702Z,1011.42
2017-06-09T00:37:53.677Z,1011.39
2017-06-09T00:39:03.961Z,1011.39
2017-06-09T00:40:14.245Z,1011.4
2017-06-09T00:41:24.788Z,1011.34
2017-06-09T00:42:35.073Z,1011.32
2017-06-09T00:43:45.364Z,1011.38
2017-06-09T00:44:55.332Z,1011.34
2017-06-09T00:46:05.620Z,1011.31
2017-06-09T00:47:16.151Z,1011.31
2017-06-09T00:48:26.428Z,1011.28
2017-06-09T00:49:36.084Z,1011.29
2017-06-09T00:50:46.052Z,1011.27
2017-06-09T00:51:56.330Z,1011.3
2017-06-09T00:53:06.556Z,1011.26
2017-06-09T00:54:16.836Z,1011.29
2017-06-09T00:55:27.110Z,1011.3
2017-06-09T00:56:37.397Z,1011.27
2017-06-09T00:57:47.407Z,1011.22
2017-06-09T00:58:57.632Z,1011.26
2017-06-09T01:00:07.908Z,1011.19
2017-06-09T01:01:18.191Z,1011.21
2017-06-09T01:02:28.186Z,1011.21
2017-06-09T01:03:38.464Z,1011.15
2017-06-09T01:04:49.048Z,1011.12
2017-06-09T01:05:59.329Z,1011.1
2017-06-09T01:07:09.598Z,1011.11
2017-06-09T01:08:19.571Z,1011.1
2017-06-09T01:09:29.850Z,1011.08
2017-06-09T01:10:40.076Z,1011.06
2017-06-09T01:11:50.354Z,1011.01
2017-06-09T01:13:00.648Z,1010.96
2017-06-09T01:14:10.932Z,1010.96
2017-06-09T01:15:21.215Z,1010.96
2017-06-09T01:16:31.758Z,1010.95
2017-06-09T01:17:42.038Z,1010.92
2017-06-09T01:18:52.003Z,1010.91
2017-06-09T01:20:01.658Z,1010.93
2017-06-09T01:21:11.945Z,1010.95
2017-06-09T01:22:22.481Z,1010.89
2017-06-09T01:23:32.472Z,1010.9
2017-06-09T01:24:42.447Z,1010.86
2017-06-09T01:25:52.712Z,1010.87
2017-06-09T01:27:02.692Z,1010.82
2017-06-09T01:28:13.235Z,1010.77
2017-06-09T01:29:23.207Z,1010.79
2017-06-09T01:30:33.480Z,1010.77
2017-06-09T01:31:43.765Z,1010.7
2017-06-09T01:32:54.051Z,1010.71
2017-06-09T01:34:04.584Z,1010.68
2017-06-09T01:35:14.868Z,1010.7
2017-06-09T01:36:24.832Z,1010.63
2017-06-09T01:37:35.106Z,1010.67
2017-06-09T01:38:44.774Z,1010.65
2017-06-09T01:39:55.302Z,1010.61
2017-06-09T01:41:05.586Z,1010.58
2017-06-09T01:42:15.864Z,1010.58
2017-06-09T01:43:25.831Z,1010.58
2017-06-09T01:44:35.801Z,1010.57
2017-06-09T01:45:46.331Z,1010.55
2017-06-09T01:46:56.612Z,1010.57
2017-06-09T01:48:06.902Z,1010.59
2017-06-09T01:49:16.868Z,1010.57
2017-06-09T01:50:27.182Z,1010.53
2017-06-09T01:51:37.709Z,1010.52
2017-06-09T01:52:47.995Z,1010.52
2017-06-09T01:53:58.281Z,1010.54
2017-06-09T01:55:08.567Z,1010.51
2017-06-09T01:56:18.534Z,1010.5
2017-06-09T01:57:29.075Z,1010.5
2017-06-09T01:58:39.355Z,1010.46
2017-06-09T01:59:49.634Z,1010.43
2017-06-09T02:00:59.288Z,1010.43
2017-06-09T02:02:09.564Z,1010.44
2017-06-09T02:03:20.091Z,1010.45
2017-06-09T02:04:30.360Z,1010.43
2017-06-09T02:05:40.023Z,1010.4
2017-06-09T02:06:49.996Z,1010.42
2017-06-09T02:07:59.964Z,1010.35
2017-06-09T02:09:10.499Z,1010.37
2017-06-09T02:10:20.776Z,1010.39
2017-06-09T02:11:31.057Z,1010.37
2017-06-09T02:12:41.336Z,1010.34
2017-06-09T02:13:51.609Z,1010.35
2017-06-09T02:15:02.140Z,1010.35
2017-06-09T02:16:12.418Z,1010.34
2017-06-09T02:17:22.691Z,1010.37
2017-06-09T02:18:32.974Z,1010.36
2017-06-09T02:19:43.255Z,1010.33
2017-06-09T02:20:53.782Z,1010.32
2017-06-09T02:22:03.442Z,1010.33
2017-06-09T02:23:13.731Z,1010.32
2017-06-09T02:24:24.011Z,1010.34
2017-06-09T02:25:34.287Z,1010.32
2017-06-09T02:26:44.820Z,1010.34
2017-06-09T02:27:54.488Z,1010.31
2017-06-09T02:29:04.767Z,1010.31
2017-06-09T02:30:15.058Z,1010.33
2017-06-09T02:31:25.033Z,1010.32
2017-06-09T02:32:35.560Z,1010.32
2017-06-09T02:33:45.843Z,1010.3
2017-06-09T02:34:56.129Z,1010.3
2017-06-09T02:36:06.097Z,1010.29
2017-06-09T02:37:16.390Z,1010.28
2017-06-09T02:38:26.920Z,1010.27
2017-06-09T02:39:36.886Z,1010.32
2017-06-09T02:40:46.847Z,1010.28
2017-06-09T02:41:56.819Z,1010.3
2017-06-09T02:43:06.780Z,1010.31
2017-06-09T02:44:17.312Z,1010.3
2017-06-09T02:45:27.587Z,1010.25
2017-06-09T02:46:37.874Z,1010.28
2017-06-09T02:47:48.151Z,1010.28
2017-06-09T02:48:58.431Z,1010.26
2017-06-09T02:50:08.964Z,1010.27
2017-06-09T02:51:19.241Z,1010.32
2017-06-09T02:52:29.215Z,1010.32
2017-06-09T02:53:39.493Z,1010.32
2017-06-09T02:54:49.460Z,1010.31
2017-06-09T02:55:59.994Z,1010.28
2017-06-09T02:57:09.969Z,1010.27
2017-06-09T02:58:20.240Z,1010.26
2017-06-09T02:59:30.248Z,1010.31
2017-06-09T03:00:40.533Z,1010.3
2017-06-09T03:01:51.061Z,1010.37
2017-06-09T03:03:01.355Z,1010.38
2017-06-09T03:04:11.633Z,1010.33
2017-06-09T03:05:21.920Z,1010.3
2017-06-09T03:06:31.882Z,1010.29
2017-06-09T03:07:42.406Z,1010.27
2017-06-09T03:08:52.691Z,1010.3
2017-06-09T03:10:02.991Z,1010.28
2017-06-09T03:11:12.957Z,1010.28
2017-06-09T03:12:23.240Z,1010.29
2017-06-09T03:13:33.812Z,1010.35
2017-06-09T03:14:44.089Z,1010.37
2017-06-09T03:15:54.373Z,1010.37
2017-06-09T03:17:04.665Z,1010.37
2017-06-09T03:18:14.937Z,1010.4
2017-06-09T03:19:25.467Z,1010.4
2017-06-09T03:20:35.433Z,1010.37
2017-06-09T03:21:45.723Z,1010.4
2017-06-09T03:22:56.003Z,1010.44
2017-06-09T03:24:06.321Z,1010.43
2017-06-09T03:25:16.863Z,1010.44
2017-06-09T03:26:27.136Z,1010.48
2017-06-09T03:27:37.413Z,1010.48
2017-06-09T03:28:47.403Z,1010.49
2017-06-09T03:29:57.674Z,1010.54
2017-06-09T03:31:07.274Z,1010.54
2017-06-09T03:32:17.246Z,1010.52
2017-06-09T03:33:27.557Z,1010.58
2017-06-09T03:34:37.850Z,1010.61
2017-06-09T03:35:48.129Z,1010.63
2017-06-09T03:36:58.658Z,1010.64
2017-06-09T03:38:08.929Z,1010.67
2017-06-09T03:39:18.900Z,1010.64
2017-06-09T03:40:28.870Z,1010.64
2017-06-09T03:41:39.157Z,1010.61
2017-06-09T03:42:49.682Z,1010.62
2017-06-09T03:43:59.897Z,1010.61
2017-06-09T03:45:09.865Z,1010.63
2017-06-09T03:46:19.829Z,1010.61
2017-06-09T03:47:30.111Z,1010.56
2017-06-09T03:48:40.640Z,1010.55
2017-06-09T03:49:50.917Z,1010.53
2017-06-09T03:51:01.189Z,1010.52
2017-06-09T03:52:11.464Z,1010.53
2017-06-09T03:53:21.750Z,1010.54
2017-06-09T03:54:32.281Z,1010.53
2017-06-09T03:55:42.562Z,1010.49
2017-06-09T03:56:52.836Z,1010.49
2017-06-09T03:58:03.122Z,1010.5
2017-06-09T03:59:13.396Z,1010.5
2017-06-09T04:00:23.616Z,1010.52
2017-06-09T04:01:33.578Z,1010.53
2017-06-09T04:02:43.556Z,1010.55
2017-06-09T04:03:53.840Z,1010.59
2017-06-09T04:05:04.134Z,1010.59
2017-06-09T04:06:14.667Z,1010.67
2017-06-09T04:07:24.941Z,1010.64
2017-06-09T04:08:35.275Z,1010.67
2017-06-09T04:09:45.558Z,1010.66
2017-06-09T04:10:55.848Z,1010.66
2017-06-09T04:12:06.378Z,1010.63
2017-06-09T04:13:16.657Z,1010.66
2017-06-09T04:14:26.933Z,1010.64
2017-06-09T04:15:36.901Z,1010.69
2017-06-09T04:16:47.194Z,1010.64
2017-06-09T04:17:57.724Z,1010.67
2017-06-09T04:19:08.009Z,1010.62
2017-06-09T04:20:18.320Z,1010.63
2017-06-09T04:21:27.986Z,1010.68
2017-06-09T04:22:38.286Z,1010.7
2017-06-09T04:23:48.830Z,1010.74
2017-06-09T04:24:59.109Z,1010.74
2017-06-09T04:26:09.101Z,1010.79
2017-06-09T04:27:19.488Z,1010.82
2017-06-09T04:28:29.147Z,1010.86
2017-06-09T04:29:39.686Z,1010.8
2017-06-09T04:30:49.674Z,1010.78
2017-06-09T04:31:59.641Z,1010.76
2017-06-09T04:33:09.626Z,1010.79
2017-06-09T04:34:19.911Z,1010.79
2017-06-09T04:35:30.440Z,1010.82
2017-06-09T04:36:40.720Z,1010.77
2017-06-09T04:37:51.004Z,1010.77
2017-06-09T04:39:01.299Z,1010.74
2017-06-09T04:40:11.588Z,1010.75
2017-06-09T04:41:22.123Z,1010.71
2017-06-09T04:42:32.402Z,1010.66
2017-06-09T04:43:42.686Z,1010.68
2017-06-09T04:44:52.663Z,1010.65
2017-06-09T04:46:02.953Z,1010.66
2017-06-09T04:47:13.487Z,1010.63
2017-06-09T04:48:23.777Z,1010.64
2017-06-09T04:49:34.061Z,1010.6
2017-06-09T04:50:44.355Z,1010.58
2017-06-09T04:51:54.656Z,1010.55
2017-06-09T04:53:04.884Z,1010.55
2017-06-09T04:54:14.547Z,1010.56
2017-06-09T04:55:24.881Z,1010.56
2017-06-09T04:56:35.175Z,1010.53
2017-06-09T04:57:45.462Z,1010.55
2017-06-09T04:58:55.698Z,1010.52
2017-06-09T05:00:06.020Z,1010.52
2017-06-09T05:01:16.300Z,1010.54
2017-06-09T05:02:26.275Z,1010.49
2017-06-09T05:03:36.557Z,1010.48
2017-06-09T05:04:47.103Z,1010.44
2017-06-09T05:05:57.098Z,1010.46
2017-06-09T05:07:07.089Z,1010.46
2017-06-09T05:08:16.755Z,1010.47
2017-06-09T05:09:26.739Z,1010.45
2017-06-09T05:10:36.970Z,1010.41
2017-06-09T05:11:47.272Z,1010.42
2017-06-09T05:12:57.560Z,1010.32
2017-06-09T05:14:07.847Z,1010.33
2017-06-09T05:15:18.134Z,1010.28
2017-06-09T05:16:28.354Z,1010.28
2017-06-09T05:17:38.654Z,1010.24
2017-06-09T05:18:48.946Z,1010.25
2017-06-09T05:19:58.929Z,1010.22
2017-06-09T05:21:09.238Z,1010.25
2017-06-09T05:22:19.775Z,1010.25
2017-06-09T05:23:29.436Z,1010.22
2017-06-09T05:24:39.737Z,1010.24
2017-06-09T05:25:50.019Z,1010.24
2017-06-09T05:26:59.994Z,1010.25
2017-06-09T05:28:10.522Z,1010.29
2017-06-09T05:29:20.802Z,1010.26
2017-06-09T05:30:30.469Z,1010.29
2017-06-09T05:31:40.753Z,1010.3
2017-06-09T05:32:50.729Z,1010.28
2017-06-09T05:34:01.262Z,1010.27
2017-06-09T05:35:11.551Z,1010.27
2017-06-09T05:36:21.541Z,1010.26
2017-06-09T05:37:31.847Z,1010.29
2017-06-09T05:38:41.825Z,1010.26
2017-06-09T05:39:52.112Z,1010.25
2017-06-09T05:41:02.397Z,1010.26
2017-06-09T05:42:12.689Z,1010.26
2017-06-09T05:43:22.662Z,1010.26
2017-06-09T05:44:32.940Z,1010.26
2017-06-09T05:45:43.468Z,1010.3
2017-06-09T05:46:53.443Z,1010.37
2017-06-09T05:48:03.737Z,1010.41
2017-06-09T05:49:14.025Z,1010.42
2017-06-09T05:50:24.308Z,1010.46
2017-06-09T05:51:34.835Z,1010.46
2017-06-09T05:52:45.123Z,1010.46
2017-06-09T05:53:55.405Z,1010.43
2017-06-09T05:55:05.691Z,1010.41
2017-06-09T05:56:15.981Z,1010.36
2017-06-09T05:57:26.514Z,1010.38
2017-06-09T05:58:36.521Z,1010.39
2017-06-09T05:59:46.812Z,1010.4
2017-06-09T06:00:57.107Z,1010.43
2017-06-09T06:02:07.394Z,1010.45
2017-06-09T06:03:17.655Z,1010.41
2017-06-09T06:04:27.941Z,1010.41
2017-06-09T06:05:38.235Z,1010.4
2017-06-09T06:06:48.224Z,1010.44
2017-06-09T06:07:58.511Z,1010.44
2017-06-09T06:09:09.050Z,1010.46
2017-06-09T06:10:19.331Z,1010.45
2017-06-09T06:11:29.613Z,1010.44
2017-06-09T06:12:39.897Z,1010.49
2017-06-09T06:13:49.579Z,1010.41
2017-06-09T06:14:59.494Z,1010.4
2017-06-09T06:16:09.784Z,1010.39
2017-06-09T06:17:19.752Z,1010.35
2017-06-09T06:18:30.039Z,1010.35
2017-06-09T06:19:40.331Z,1010.35
2017-06-09T06:20:50.865Z,1010.39
2017-06-09T06:22:01.150Z,1010.38
2017-06-09T06:23:11.135Z,1010.38
2017-06-09T06:24:21.112Z,1010.45
2017-06-09T06:25:31.080Z,1010.39
2017-06-09T06:26:41.306Z,1010.49
2017-06-09T06:27:51.280Z,1010.47
2017-06-09T06:29:01.589Z,1010.51
2017-06-09T06:30:11.871Z,1010.55
2017-06-09T06:31:22.453Z,1010.54
2017-06-09T06:32:32.988Z,1010.51
2017-06-09T06:33:43.281Z,1010.52
2017-06-09T06:34:53.273Z,1010.54
2017-06-09T06:36:03.240Z,1010.52
2017-06-09T06:37:13.220Z,1010.51
2017-06-09T06:38:23.764Z,1010.55
2017-06-09T06:39:33.749Z,1010.56
2017-06-09T06:40:44.034Z,1010.51
2017-06-09T06:41:54.017Z,1010.53
2017-06-09T06:43:04.317Z,1010.48
2017-06-09T06:44:14.846Z,1010.47
2017-06-09T06:45:24.825Z,1010.49
2017-06-09T06:46:35.113Z,1010.49
2017-06-09T06:47:45.149Z,1010.5
2017-06-09T06:48:55.433Z,1010.48
2017-06-09T06:50:05.654Z,1010.47
2017-06-09T06:51:15.973Z,1010.42
2017-06-09T06:52:25.950Z,1010.43
2017-06-09T06:53:36.234Z,1010.38
2017-06-09T06:54:46.522Z,1010.34
2017-06-09T06:55:57.048Z,1010.35
2017-06-09T06:57:07.035Z,1010.37
2017-06-09T06:58:16.708Z,1010.36
2017-06-09T06:59:27.005Z,1010.35
2017-06-09T07:00:36.971Z,1010.4
2017-06-09T07:01:47.508Z,1010.41
2017-06-09T07:02:57.803Z,1010.42
2017-06-09T07:04:08.097Z,1010.43
2017-06-09T07:05:18.074Z,1010.41
2017-06-09T07:06:28.051Z,1010.41
2017-06-09T07:07:38.609Z,1010.38
2017-06-09T07:08:48.272Z,1010.4
2017-06-09T07:09:58.581Z,1010.38
2017-06-09T07:11:08.865Z,1010.36
2017-06-09T07:12:18.540Z,1010.36
2017-06-09T07:13:28.766Z,1010.33
2017-06-09T07:14:38.733Z,1010.34
2017-06-09T07:15:49.030Z,1010.34
2017-06-09T07:16:59.318Z,1010.3
2017-06-09T07:18:09.292Z,1010.31
2017-06-09T07:19:19.533Z,1010.29
2017-06-09T07:20:29.817Z,1010.3
2017-06-09T07:21:40.101Z,1010.28
2017-06-09T07:22:50.404Z,1010.29
2017-06-09T07:24:00.687Z,1010.29
2017-06-09T07:25:11.223Z,1010.32
2017-06-09T07:26:21.525Z,1010.31
2017-06-09T07:27:31.825Z,1010.25
2017-06-09T07:28:41.493Z,1010.29
2017-06-09T07:29:51.784Z,1010.23
2017-06-09T07:31:02.341Z,1010.18
2017-06-09T07:32:12.631Z,1010.2
2017-06-09T07:33:22.912Z,1010.18
2017-06-09T07:34:32.950Z,1010.18
2017-06-09T07:35:43.239Z,1010.15
2017-06-09T07:36:53.471Z,1010.19
2017-06-09T07:38:03.760Z,1010.13
2017-06-09T07:39:13.745Z,1010.12
2017-06-09T07:40:24.030Z,1010.11
2017-06-09T07:41:33.692Z,1010.09
2017-06-09T07:42:43.606Z,1010.05
2017-06-09T07:43:53.894Z,1010.03
2017-06-09T07:45:03.573Z,1009.99
2017-06-09T07:46:13.558Z,1009.93
2017-06-09T07:47:23.873Z,1009.96
2017-06-09T07:48:34.099Z,1009.95
2017-06-09T07:49:44.385Z,1009.93
2017-06-09T07:50:54.369Z,1009.88
2017-06-09T07:52:04.673Z,1009.79
2017-06-09T07:53:14.971Z,1009.77
2017-06-09T07:54:25.524Z,1009.74
2017-06-09T07:55:35.811Z,1009.74
2017-06-09T07:56:46.113Z,1009.73
2017-06-09T07:57:56.460Z,1009.66
2017-06-09T07:59:06.762Z,1009.62
2017-06-09T08:00:17.297Z,1009.68
2017-06-09T08:01:27.272Z,1009.63
2017-06-09T08:02:37.245Z,1009.64
2017-06-09T08:03:47.533Z,1009.67
2017-06-09T08:04:57.774Z,1009.68
2017-06-09T08:06:08.009Z,1009.73
2017-06-09T08:07:18.294Z,1009.78
2017-06-09T08:08:28.273Z,1009.78
2017-06-09T08:09:38.559Z,1009.8
2017-06-09T08:10:48.861Z,1009.83
2017-06-09T08:11:59.396Z,1009.8
2017-06-09T08:13:09.377Z,1009.81
2017-06-09T08:14:19.665Z,1009.78
2017-06-09T08:15:29.956Z,1009.76
2017-06-09T08:16:40.260Z,1009.74
2017-06-09T08:17:50.175Z,1009.75
2017-06-09T08:18:59.834Z,1009.71
2017-06-09T08:20:09.815Z,1009.7
2017-06-09T08:21:20.101Z,1009.7
2017-06-09T08:22:30.081Z,1009.66
2017-06-09T08:23:40.631Z,1009.65
2017-06-09T08:24:50.924Z,1009.65
2017-06-09T08:26:01.216Z,1009.56
2017-06-09T08:27:11.514Z,1009.59
2017-06-09T08:28:21.799Z,1009.58
2017-06-09T08:29:32.116Z,1009.55
2017-06-09T08:30:42.091Z,1009.59
2017-06-09T08:31:51.771Z,1009.51
2017-06-09T08:33:02.064Z,1009.55
2017-06-09T08:34:12.362Z,1009.51
2017-06-09T08:35:22.961Z,1009.56
2017-06-09T08:36:33.273Z,1009.53
2017-06-09T08:37:43.574Z,1009.52
2017-06-09T08:38:53.576Z,1009.48
2017-06-09T08:40:03.870Z,1009.47
2017-06-09T08:41:14.410Z,1009.49
2017-06-09T08:42:24.700Z,1009.46
2017-06-09T08:43:34.689Z,1009.47
2017-06-09T08:44:44.665Z,1009.41
2017-06-09T08:45:54.962Z,1009.41
2017-06-09T08:47:05.503Z,1009.41
2017-06-09T08:48:15.477Z,1009.38
2017-06-09T08:49:25.769Z,1009.46
2017-06-09T08:50:36.048Z,1009.38
2017-06-09T08:51:46.025Z,1009.39
2017-06-09T08:52:56.557Z,1009.37
2017-06-09T08:54:06.862Z,1009.43
2017-06-09T08:55:17.145Z,1009.34
2017-06-09T08:56:27.426Z,1009.4
2017-06-09T08:57:37.737Z,1009.4
2017-06-09T08:58:47.995Z,1009.38
2017-06-09T08:59:58.304Z,1009.35
2017-06-09T09:01:08.281Z,1009.31
2017-06-09T09:02:18.265Z,1009.33
2017-06-09T09:03:28.258Z,1009.3
2017-06-09T09:04:38.808Z,1009.35
2017-06-09T09:05:49.129Z,1009.3
2017-06-09T09:06:59.422Z,1009.38
2017-06-09T09:08:09.715Z,1009.35
2017-06-09T09:09:19.376Z,1009.35
2017-06-09T09:10:29.914Z,1009.36
2017-06-09T09:11:40.200Z,1009.38
2017-06-09T09:12:50.493Z,1009.39
2017-06-09T09:14:00.790Z,1009.38
2017-06-09T09:15:11.080Z,1009.37
2017-06-09T09:16:21.632Z,1009.35
2017-06-09T09:17:31.602Z,1009.4
2017-06-09T09:18:41.901Z,1009.34
2017-06-09T09:19:52.181Z,1009.33
2017-06-09T09:21:02.465Z,1009.3
2017-06-09T09:22:12.739Z,1009.3
2017-06-09T09:23:22.712Z,1009.28
2017-06-09T09:24:33.013Z,1009.3
2017-06-09T09:25:43.301Z,1009.27
2017-06-09T09:26:52.959Z,1009.3
2017-06-09T09:28:02.901Z,1009.26
2017-06-09T09:29:13.184Z,1009.32
2017-06-09T09:30:23.462Z,1009.28
2017-06-09T09:31:33.450Z,1009.27
2017-06-09T09:32:43.422Z,1009.25
2017-06-09T09:33:53.957Z,1009.24
2017-06-09T09:35:04.238Z,1009.25
2017-06-09T09:36:14.222Z,1009.23
2017-06-09T09:37:24.517Z,1009.21
2017-06-09T09:38:34.808Z,1009.2
2017-06-09T09:39:45.352Z,1009.18
2017-06-09T09:40:55.318Z,1009.13
2017-06-09T09:42:05.294Z,1009.19
2017-06-09T09:43:15.581Z,1009.15
2017-06-09T09:44:25.867Z,1009.11
2017-06-09T09:45:36.095Z,1009.1
2017-06-09T09:46:46.381Z,1009.05
2017-06-09T09:47:56.362Z,1009.04
2017-06-09T09:49:06.340Z,1009.01
2017-06-09T09:50:16.327Z,1008.99
2017-06-09T09:51:26.857Z,1009
2017-06-09T09:52:37.135Z,1008.99
2017-06-09T09:53:47.424Z,1008.94
2017-06-09T09:54:57.705Z,1008.96
2017-06-09T09:56:07.992Z,1008.91
2017-06-09T09:57:18.626Z,1008.97
2017-06-09T09:58:28.618Z,1008.9
2017-06-09T09:59:38.600Z,1008.88
2017-06-09T10:00:48.883Z,1008.88
2017-06-09T10:01:58.871Z,1008.86
2017-06-09T10:03:08.784Z,1008.84
2017-06-09T10:04:18.449Z,1008.78
2017-06-09T10:05:28.729Z,1008.82
2017-06-09T10:06:39.013Z,1008.79
2017-06-09T10:07:49.310Z,1008.77
2017-06-09T10:08:59.857Z,1008.76
2017-06-09T10:10:10.152Z,1008.79
2017-06-09T10:11:20.431Z,1008.77
2017-06-09T10:12:30.723Z,1008.75
2017-06-09T10:13:41.039Z,1008.7
2017-06-09T10:14:51.271Z,1008.76
2017-06-09T10:16:01.573Z,1008.79
2017-06-09T10:17:11.866Z,1008.78
2017-06-09T10:18:21.839Z,1008.7
2017-06-09T10:19:31.819Z,1008.64
2017-06-09T10:20:42.368Z,1008.65
2017-06-09T10:21:52.658Z,1008.59
2017-06-09T10:23:02.952Z,1008.6
2017-06-09T10:24:12.913Z,1008.62
2017-06-09T10:25:22.576Z,1008.58
2017-06-09T10:26:32.815Z,1008.55
2017-06-09T10:27:42.797Z,1008.51
2017-06-09T10:28:53.083Z,1008.49
2017-06-09T10:30:03.377Z,1008.49
2017-06-09T10:31:13.362Z,1008.47
2017-06-09T10:32:23.898Z,1008.45
2017-06-09T10:33:34.178Z,1008.43
2017-06-09T10:34:44.465Z,1008.4
2017-06-09T10:35:54.753Z,1008.41
2017-06-09T10:37:04.745Z,1008.42
2017-06-09T10:38:15.293Z,1008.43
2017-06-09T10:39:25.283Z,1008.45
2017-06-09T10:40:35.598Z,1008.36
2017-06-09T10:41:45.590Z,1008.34
2017-06-09T10:42:55.891Z,1008.35
2017-06-09T10:44:06.426Z,1008.35
2017-06-09T10:45:16.721Z,1008.31
2017-06-09T10:46:27.006Z,1008.31
2017-06-09T10:47:36.977Z,1008.29
2017-06-09T10:48:46.995Z,1008.35
2017-06-09T10:49:57.215Z,1008.3
2017-06-09T10:51:07.505Z,1008.29
2017-06-09T10:52:17.793Z,1008.21
2017-06-09T10:53:28.088Z,1008.2
2017-06-09T10:54:38.368Z,1008.19
2017-06-09T10:55:48.911Z,1008.16
2017-06-09T10:56:59.205Z,1008.12
2017-06-09T10:58:08.878Z,1008.06
2017-06-09T10:59:19.162Z,1008.05
2017-06-09T11:00:29.457Z,1008.08
2017-06-09T11:01:40.017Z,1008.12
2017-06-09T11:02:49.999Z,1008.07
2017-06-09T11:04:00.316Z,1008.1
2017-06-09T11:05:10.282Z,1008.11
2017-06-09T11:06:20.565Z,1008.09
2017-06-09T11:07:30.844Z,1008.03
2017-06-09T11:08:41.148Z,1007.99
2017-06-09T11:09:51.432Z,1008
2017-06-09T11:11:01.730Z,1007.99
2017-06-09T11:12:11.711Z,1007.96
2017-06-09T11:13:22.266Z,1007.97
2017-06-09T11:14:32.578Z,1007.95
2017-06-09T11:15:42.552Z,1007.94
2017-06-09T11:16:52.840Z,1007.93
2017-06-09T11:18:03.143Z,1007.92
2017-06-09T11:19:13.698Z,1007.91
2017-06-09T11:20:23.979Z,1007.91
2017-06-09T11:21:34.269Z,1007.87
2017-06-09T11:22:44.568Z,1007.84
2017-06-09T11:23:54.549Z,1007.85
2017-06-09T11:25:04.781Z,1007.82
2017-06-09T11:26:15.077Z,1007.75
2017-06-09T11:27:25.047Z,1007.7
2017-06-09T11:28:35.327Z,1007.69
2017-06-09T11:29:45.610Z,1007.7
2017-06-09T11:30:56.164Z,1007.72
2017-06-09T11:32:06.448Z,1007.71
2017-06-09T11:33:16.720Z,1007.71
2017-06-09T11:34:26.995Z,1007.71
2017-06-09T11:35:37.286Z,1007.67
2017-06-09T11:36:47.821Z,1007.65
2017-06-09T11:37:58.105Z,1007.71
2017-06-09T11:39:08.067Z,1007.66
2017-06-09T11:40:18.043Z,1007.67
2017-06-09T11:41:28.348Z,1007.65
2017-06-09T11:42:38.881Z,1007.71
2017-06-09T11:43:49.168Z,1007.66
2017-06-09T11:44:59.455Z,1007.65
2017-06-09T11:46:09.438Z,1007.66
2017-06-09T11:47:19.725Z,1007.6
2017-06-09T11:48:30.273Z,1007.6
2017-06-09T11:49:40.266Z,1007.61
2017-06-09T11:50:50.544Z,1007.61
2017-06-09T11:52:00.501Z,1007.55
2017-06-09T11:53:10.469Z,1007.52
2017-06-09T11:54:21.002Z,1007.48
2017-06-09T11:55:31.290Z,1007.52
2017-06-09T11:56:41.601Z,1007.48
2017-06-09T11:57:51.579Z,1007.43
2017-06-09T11:59:01.246Z,1007.43
2017-06-09T12:00:11.519Z,1007.47
2017-06-09T12:01:21.803Z,1007.39
2017-06-09T12:02:32.084Z,1007.38
2017-06-09T12:03:42.042Z,1007.39
2017-06-09T12:04:51.714Z,1007.32
2017-06-09T12:06:02.250Z,1007.34
2017-06-09T12:07:12.531Z,1007.3
2017-06-09T12:08:22.813Z,1007.31
2017-06-09T12:09:32.789Z,1007.3
2017-06-09T12:10:43.078Z,1007.25
2017-06-09T12:11:53.300Z,1007.23
2017-06-09T12:13:02.961Z,1007.24
2017-06-09T12:14:13.243Z,1007.17
2017-06-09T12:15:23.546Z,1007.26
2017-06-09T12:16:33.816Z,1007.25
2017-06-09T12:17:44.342Z,1007.21
2017-06-09T12:18:54.638Z,1007.22
2017-06-09T12:20:04.924Z,1007.22
2017-06-09T12:21:15.210Z,1007.19
2017-06-09T12:22:25.194Z,1007.19
2017-06-09T12:23:35.731Z,1007.16
2017-06-09T12:24:45.788Z,1007.18
2017-06-09T12:25:55.764Z,1007.16
2017-06-09T12:27:05.420Z,1007.13
2017-06-09T12:28:15.708Z,1007.13
2017-06-09T12:29:26.246Z,1007.14
2017-06-09T12:30:36.535Z,1007.12
2017-06-09T12:31:46.811Z,1007.09
2017-06-09T12:32:57.096Z,1007.1
2017-06-09T12:34:07.384Z,1007.15
2017-06-09T12:35:17.925Z,1007.13
2017-06-09T12:36:28.250Z,1007.13
2017-06-09T12:37:38.535Z,1007.1
2017-06-09T12:38:48.818Z,1007.08
2017-06-09T12:39:59.097Z,1007.09
2017-06-09T12:41:09.687Z,1007.04
2017-06-09T12:42:19.960Z,1007.07
2017-06-09T12:43:30.241Z,1007.02
2017-06-09T12:44:40.529Z,1006.98
2017-06-09T12:45:50.806Z,1007.02
2017-06-09T12:47:01.347Z,1006.99
2017-06-09T12:48:11.639Z,1006.99
2017-06-09T12:49:21.621Z,1006.95
2017-06-09T12:50:31.903Z,1006.97
2017-06-09T12:51:42.189Z,1006.89
2017-06-09T12:52:52.408Z,1006.88
2017-06-09T12:54:02.390Z,1006.91
2017-06-09T12:55:12.375Z,1006.91
2017-06-09T12:56:22.047Z,1006.94
2017-06-09T12:57:32.326Z,1006.94
2017-06-09T12:58:42.866Z,1006.9
2017-06-09T12:59:53.141Z,1006.87
2017-06-09T13:01:03.114Z,1006.89
2017-06-09T13:02:13.101Z,1006.84
2017-06-09T13:03:23.389Z,1006.87
2017-06-09T13:04:34.016Z,1006.86
2017-06-09T13:05:44.295Z,1006.82
2017-06-09T13:06:54.576Z,1006.86
2017-06-09T13:08:04.882Z,1006.87
2017-06-09T13:09:14.846Z,1006.81
2017-06-09T13:10:25.391Z,1006.85
2017-06-09T13:11:35.682Z,1006.89
2017-06-09T13:12:45.977Z,1006.88
2017-06-09T13:13:56.259Z,1006.84
2017-06-09T13:15:06.251Z,1006.86
2017-06-09T13:16:16.479Z,1006.84
2017-06-09T13:17:26.459Z,1006.81
2017-06-09T13:18:36.440Z,1006.87
2017-06-09T13:19:46.429Z,1006.86
2017-06-09T13:20:56.709Z,1006.81
2017-06-09T13:22:07.245Z,1006.81
2017-06-09T13:23:17.525Z,1006.7
2017-06-09T13:24:27.503Z,1006.72
2017-06-09T13:25:37.785Z,1006.7
2017-06-09T13:26:47.764Z,1006.66
2017-06-09T13:27:57.980Z,1006.7
2017-06-09T13:29:08.256Z,1006.66
2017-06-09T13:30:18.239Z,1006.61
2017-06-09T13:31:28.533Z,1006.61
2017-06-09T13:32:38.818Z,1006.62
2017-06-09T13:33:49.368Z,1006.67
2017-06-09T13:34:59.649Z,1006.57
2017-06-09T13:36:09.932Z,1006.52
2017-06-09T13:37:20.209Z,1006.56
2017-06-09T13:38:30.487Z,1006.52
2017-06-09T13:39:41.020Z,1006.51
2017-06-09T13:40:51.304Z,1006.52
2017-06-09T13:42:01.282Z,1006.5
2017-06-09T13:43:11.596Z,1006.49
2017-06-09T13:44:21.565Z,1006.56
2017-06-09T13:45:32.100Z,1006.57
2017-06-09T13:46:42.390Z,1006.54
2017-06-09T13:47:52.687Z,1006.55
2017-06-09T13:49:02.965Z,1006.53
2017-06-09T13:50:13.244Z,1006.53
2017-06-09T13:51:23.479Z,1006.57
2017-06-09T13:52:33.760Z,1006.52
2017-06-09T13:53:44.043Z,1006.53
2017-06-09T13:54:54.031Z,1006.48
2017-06-09T13:56:04.002Z,1006.51
2017-06-09T13:57:14.605Z,1006.53
2017-06-09T13:58:24.581Z,1006.5
2017-06-09T13:59:34.560Z,1006.47
2017-06-09T14:00:44.847Z,1006.51
2017-06-09T14:01:55.131Z,1006.54
2017-06-09T14:03:05.738Z,1006.55
2017-06-09T14:04:15.705Z,1006.56
2017-06-09T14:05:25.695Z,1006.59
2017-06-09T14:06:35.984Z,1006.5
2017-06-09T14:07:46.280Z,1006.55
2017-06-09T14:08:56.491Z,1006.57
2017-06-09T14:10:06.789Z,1006.56
2017-06-09T14:11:17.067Z,1006.54
2017-06-09T14:12:27.040Z,1006.59